Time;durP1;ratioP1;P1;durP2;ratioP2;P2;SDS_P1;SDS_P2;PMS_P1;PMS_P2;Temp;Humidity;BMP_temperature;BMP_pressure;BME280_temperature;BME280_humidity;BME280_pressure;Samples;Min_cycle;Max_cycle;Signal;HPM_P1;HPM_P2
2023/01/02 00:02:26;;;;;;;6.05;0.70;;;;;;;;;;6201822;23;20023;-67
2023/01/02 00:04:54;;;;;;;5.75;0.70;;;;;;;;;;6197555;23;20023;-67
2023/01/02 00:07:22;;;;;;;10.80;0.70;;;;;;;;;;6203377;23;20522;-67
2023/01/02 00:09:50;;;;;;;6.03;0.50;;;;;;;;;;6191139;23;20056;-66
2023/01/02 00:12:18;;;;;;;5.45;0.60;;;;;;;;;;6203265;23;20012;-68
2023/01/02 00:14:45;;;;;;;6.30;0.88;;;;;;;;;;6197006;23;20094;-66
2023/01/02 00:17:13;;;;;;;4.55;0.60;;;;;;;;;;6203870;23;20039;-68
2023/01/02 00:19:43;;;;;;;4.60;0.90;;;;;;;;;;6202688;23;20031;-65
2023/01/02 00:22:10;;;;;;;4.70;0.63;;;;;;;;;;6203505;23;20735;-66
2023/01/02 00:24:38;;;;;;;4.13;0.50;;;;;;;;;;6198903;23;20822;-68
2023/01/02 00:27:06;;;;;;;9.55;0.93;;;;;;;;;;6180541;23;20020;-68
2023/01/02 00:29:34;;;;;;;8.15;0.93;;;;;;;;;;6195733;23;20108;-67
2023/01/02 00:32:01;;;;;;;9.47;1.13;;;;;;;;;;6196108;23;20126;-67
2023/01/02 00:34:29;;;;;;;4.00;0.70;;;;;;;;;;6199537;23;20372;-67
2023/01/02 00:36:58;;;;;;;9.88;0.70;;;;;;;;;;6176318;23;20344;-67
2023/01/02 00:39:27;;;;;;;6.55;0.75;;;;;;;;;;6189056;23;20304;-68
2023/01/02 00:41:56;;;;;;;6.10;0.77;;;;;;;;;;6200753;23;20343;-68
2023/01/02 00:44:23;;;;;;;5.37;0.53;;;;;;;;;;6205125;23;20031;-67
2023/01/02 00:46:51;;;;;;;5.70;0.70;;;;;;;;;;6201076;23;20069;-67
2023/01/02 00:49:19;;;;;;;5.32;0.70;;;;;;;;;;6203142;23;20019;-68
2023/01/02 00:51:46;;;;;;;5.32;0.70;;;;;;;;;;6152503;23;20108;-68
2023/01/02 00:54:15;;;;;;;4.80;0.47;;;;;;;;;;6177669;23;20026;-67
2023/01/02 00:56:43;;;;;;;5.70;0.63;;;;;;;;;;6137363;23;20078;-68
2023/01/02 00:59:16;;;;;;;5.85;0.60;;;;;;;;;;6173087;23;20024;-69
2023/01/02 01:01:44;;;;;;;4.07;0.57;;;;;;;;;;6174953;23;20100;-68
2023/01/02 01:04:16;;;;;;;8.43;0.50;;;;;;;;;;6153271;23;20055;-66
2023/01/02 01:06:43;;;;;;;9.65;0.77;;;;;;;;;;6147023;23;20031;-67
2023/01/02 01:09:12;;;;;;;9.23;0.63;;;;;;;;;;6167112;23;20024;-68
2023/01/02 01:11:42;;;;;;;7.78;0.73;;;;;;;;;;6175629;23;20739;-68
2023/01/02 01:14:10;;;;;;;6.13;0.50;;;;;;;;;;6182709;23;20470;-68
2023/01/02 01:16:37;;;;;;;6.07;0.60;;;;;;;;;;6175423;23;20104;-67
2023/01/02 01:19:05;;;;;;;5.97;0.57;;;;;;;;;;6180631;23;20067;-68
2023/01/02 01:21:33;;;;;;;4.67;0.60;;;;;;;;;;6173194;23;20531;-68
2023/01/02 01:24:00;;;;;;;8.95;0.50;;;;;;;;;;6171799;23;20044;-67
2023/01/02 01:26:28;;;;;;;4.65;0.40;;;;;;;;;;6178848;23;20469;-67
2023/01/02 01:28:57;;;;;;;4.75;0.40;;;;;;;;;;6176521;23;20021;-69
2023/01/02 01:31:25;;;;;;;8.35;0.65;;;;;;;;;;6176842;23;20037;-67
2023/01/02 01:33:52;;;;;;;6.27;0.70;;;;;;;;;;6177863;23;20012;-67
2023/01/02 01:36:21;;;;;;;5.32;0.57;;;;;;;;;;6177617;23;20114;-64
2023/01/02 01:38:48;;;;;;;11.00;0.80;;;;;;;;;;6166919;23;20025;-68
2023/01/02 01:41:19;;;;;;;4.80;0.85;;;;;;;;;;6169909;23;20012;-68
2023/01/02 01:43:48;;;;;;;6.50;0.73;;;;;;;;;;6177290;23;20360;-67
2023/01/02 01:46:21;;;;;;;9.20;0.60;;;;;;;;;;6186213;23;20092;-68
2023/01/02 01:48:52;;;;;;;6.68;0.32;;;;;;;;;;6179060;23;20016;-67
2023/01/02 01:51:20;;;;;;;9.00;1.08;;;;;;;;;;6174830;23;20044;-68
2023/01/02 01:53:50;;;;;;;9.95;0.73;;;;;;;;;;6196854;23;20063;-67
2023/01/02 01:56:18;;;;;;;5.80;0.55;;;;;;;;;;6207159;23;20016;-67
2023/01/02 01:58:46;;;;;;;7.53;0.70;;;;;;;;;;6198874;23;20461;-68
2023/01/02 02:01:14;;;;;;;5.47;0.60;;;;;;;;;;6209895;23;20024;-67
2023/01/02 02:03:45;;;;;;;8.05;0.60;;;;;;;;;;6193428;23;20070;-68
2023/01/02 02:06:13;;;;;;;7.95;0.60;;;;;;;;;;6200467;23;20016;-68
2023/01/02 02:08:43;;;;;;;5.10;0.50;;;;;;;;;;6182587;23;20016;-67
2023/01/02 02:11:12;;;;;;;9.20;0.90;;;;;;;;;;6210855;23;20047;-67
2023/01/02 02:13:40;;;;;;;8.48;0.52;;;;;;;;;;6201094;23;20187;-68
2023/01/02 02:16:14;;;;;;;9.05;0.68;;;;;;;;;;6208098;23;20047;-66
2023/01/02 02:18:52;;;;;;;8.10;0.68;;;;;;;;;;6170485;23;20465;-67
2023/01/02 02:21:26;;;;;;;4.68;0.75;;;;;;;;;;6201717;23;20015;-68
2023/01/02 02:24:02;;;;;;;7.20;0.50;;;;;;;;;;6202352;23;20338;-67
2023/01/02 02:27:03;;;;;;;6.63;0.63;;;;;;;;;;6200407;23;20073;-67
2023/01/02 02:29:57;;;;;;;7.22;0.57;;;;;;;;;;6200180;23;20138;-67
2023/01/02 02:32:32;;;;;;;7.07;0.60;;;;;;;;;;6181802;23;20062;-68
2023/01/02 02:35:04;;;;;;;9.38;0.70;;;;;;;;;;6213006;23;20044;-65
2023/01/02 02:37:33;;;;;;;7.00;0.60;;;;;;;;;;6202306;23;20413;-67
2023/01/02 02:40:04;;;;;;;3.45;0.20;;;;;;;;;;6211053;23;20517;-67
2023/01/02 02:42:36;;;;;;;5.00;0.30;;;;;;;;;;6184831;23;20471;-67
2023/01/02 02:45:06;;;;;;;8.55;0.68;;;;;;;;;;6212586;23;20023;-67
2023/01/02 02:47:43;;;;;;;9.57;0.50;;;;;;;;;;6203807;23;20035;-67
2023/01/02 02:50:14;;;;;;;5.87;0.40;;;;;;;;;;6199051;23;20091;-67
2023/01/02 02:52:45;;;;;;;9.05;0.50;;;;;;;;;;6203301;23;20087;-67
2023/01/02 02:55:15;;;;;;;6.75;0.60;;;;;;;;;;6197520;23;20016;-67
2023/01/02 02:57:43;;;;;;;6.10;0.70;;;;;;;;;;6199484;23;20016;-66
2023/01/02 03:00:13;;;;;;;9.57;1.38;;;;;;;;;;6209743;23;20063;-67
2023/01/02 03:02:42;;;;;;;3.67;0.50;;;;;;;;;;6191171;23;20016;-67
2023/01/02 03:05:12;;;;;;;6.60;0.30;;;;;;;;;;6210690;23;20455;-67
2023/01/02 03:07:47;;;;;;;9.30;0.82;;;;;;;;;;6202753;23;20044;-60
2023/01/02 03:10:18;;;;;;;7.45;0.50;;;;;;;;;;6202724;23;20023;-67
2023/01/02 03:12:50;;;;;;;7.47;0.50;;;;;;;;;;6210865;23;20462;-67
2023/01/02 03:15:23;;;;;;;4.67;0.60;;;;;;;;;;6204337;23;20055;-67
2023/01/02 03:18:03;;;;;;;6.93;0.30;;;;;;;;;;6205689;23;20406;-67
2023/01/02 03:20:33;;;;;;;9.60;0.82;;;;;;;;;;6212986;23;20015;-67
2023/01/02 03:23:02;;;;;;;6.75;0.40;;;;;;;;;;6196495;23;20702;-66
2023/01/02 03:25:31;;;;;;;6.75;0.60;;;;;;;;;;6207085;23;20059;-66
2023/01/02 03:28:00;;;;;;;7.07;0.50;;;;;;;;;;6199281;23;20094;-67
2023/01/02 03:30:29;;;;;;;5.30;1.05;;;;;;;;;;6176357;23;20022;-66
2023/01/02 03:32:58;;;;;;;6.85;0.70;;;;;;;;;;6203096;23;20027;-66
2023/01/02 03:35:29;;;;;;;2.67;0.40;;;;;;;;;;6203331;23;20059;-66
2023/01/02 03:37:58;;;;;;;8.85;0.70;;;;;;;;;;6204306;23;20687;-66
2023/01/02 03:40:28;;;;;;;4.80;0.50;;;;;;;;;;6207413;23;20182;-67
2023/01/02 03:42:59;;;;;;;8.27;0.57;;;;;;;;;;6184831;23;20471;-66
2023/01/02 03:45:29;;;;;;;9.75;0.80;;;;;;;;;;6191172;23;20111;-67
2023/01/02 03:47:59;;;;;;;4.13;0.50;;;;;;;;;;6206908;23;20090;-67
2023/01/02 03:50:32;;;;;;;8.30;0.47;;;;;;;;;;6194616;23;20272;-67
2023/01/02 03:53:00;;;;;;;9.47;0.80;;;;;;;;;;6206939;23;20050;-59
2023/01/02 03:55:30;;;;;;;6.82;0.57;;;;;;;;;;6171558;23;20016;-66
2023/01/02 03:58:00;;;;;;;8.95;0.95;;;;;;;;;;6208296;23;20074;-66
2023/01/02 04:00:31;;;;;;;6.88;0.40;;;;;;;;;;6198738;23;20095;-66
2023/01/02 04:03:02;;;;;;;10.27;0.93;;;;;;;;;;6210761;23;20020;-67
2023/01/02 04:05:37;;;;;;;11.30;0.77;;;;;;;;;;6199219;23;20016;-67
2023/01/02 04:08:09;;;;;;;5.57;0.45;;;;;;;;;;6205194;23;20463;-68
2023/01/02 04:10:38;;;;;;;9.45;0.70;;;;;;;;;;6212025;23;20412;-66
2023/01/02 04:13:12;;;;;;;5.95;0.73;;;;;;;;;;6200592;23;20016;-66
2023/01/02 04:15:41;;;;;;;10.98;0.70;;;;;;;;;;6210574;23;20027;-63
2023/01/02 04:18:11;;;;;;;4.20;0.50;;;;;;;;;;6207093;23;20030;-66
2023/01/02 04:20:41;;;;;;;9.48;0.60;;;;;;;;;;6204214;23;20443;-66
2023/01/02 04:23:12;;;;;;;9.68;0.60;;;;;;;;;;6203770;23;20447;-66
2023/01/02 04:25:43;;;;;;;8.80;0.55;;;;;;;;;;6208695;23;20950;-66
2023/01/02 04:28:13;;;;;;;4.38;0.60;;;;;;;;;;6200798;23;20016;-67
2023/01/02 04:30:43;;;;;;;10.93;0.80;;;;;;;;;;6200918;23;20055;-67
2023/01/02 04:33:12;;;;;;;7.70;0.85;;;;;;;;;;6212396;23;20016;-68
2023/01/02 04:35:42;;;;;;;5.60;0.45;;;;;;;;;;6202430;23;20023;-68
2023/01/02 04:38:11;;;;;;;8.77;0.68;;;;;;;;;;6183062;23;20042;-67
2023/01/02 04:40:39;;;;;;;8.38;0.50;;;;;;;;;;6199921;23;20435;-67
2023/01/02 04:43:13;;;;;;;15.30;0.70;;;;;;;;;;6205298;23;20012;-67
2023/01/02 04:45:41;;;;;;;10.05;0.63;;;;;;;;;;6198138;23;20046;-66
2023/01/02 04:48:09;;;;;;;6.63;0.57;;;;;;;;;;6212216;23;20008;-66
2023/01/02 04:50:36;;;;;;;9.43;0.88;;;;;;;;;;6199945;23;20053;-66
2023/01/02 04:53:05;;;;;;;9.02;0.40;;;;;;;;;;6209835;23;20070;-67
2023/01/02 04:55:33;;;;;;;6.20;0.83;;;;;;;;;;6193807;23;20415;-67
2023/01/02 04:58:00;;;;;;;8.77;0.55;;;;;;;;;;6178599;23;20016;-67
2023/01/02 05:00:29;;;;;;;9.98;0.90;;;;;;;;;;6211886;23;20012;-67
2023/01/02 05:02:57;;;;;;;6.53;0.60;;;;;;;;;;6202567;23;20016;-67
2023/01/02 05:05:28;;;;;;;13.15;0.90;;;;;;;;;;6211827;23;20529;-66
2023/01/02 05:07:57;;;;;;;8.57;0.40;;;;;;;;;;6204204;23;20017;-67
2023/01/02 05:10:26;;;;;;;5.90;0.70;;;;;;;;;;6200962;23;20051;-67
2023/01/02 05:12:55;;;;;;;7.22;0.50;;;;;;;;;;6197891;23;20797;-68
2023/01/02 05:15:23;;;;;;;7.03;0.50;;;;;;;;;;6217310;23;20020;-66
2023/01/02 05:17:51;;;;;;;6.65;0.77;;;;;;;;;;6207960;23;20028;-66
2023/01/02 05:20:19;;;;;;;4.47;0.60;;;;;;;;;;6208665;23;20043;-66
2023/01/02 05:25:35;;;;;;;7.07;0.60;;;;;;;;;;6202209;23;20082;-66
2023/01/02 05:28:03;;;;;;;8.55;0.60;;;;;;;;;;6212986;23;20047;-66
2023/01/02 05:30:31;;;;;;;9.68;0.73;;;;;;;;;;6194109;23;20302;-68
2023/01/02 05:32:59;;;;;;;8.33;0.50;;;;;;;;;;6204598;23;20310;-69
2023/01/02 05:35:26;;;;;;;6.93;0.73;;;;;;;;;;6214018;23;20013;-69
2023/01/02 05:37:59;;;;;;;5.20;0.52;;;;;;;;;;6193578;23;20044;-69
2023/01/02 05:40:28;;;;;;;9.60;0.57;;;;;;;;;;6205582;23;20020;-68
2023/01/02 05:42:58;;;;;;;8.65;0.57;;;;;;;;;;6204918;23;20095;-68
2023/01/02 05:45:29;;;;;;;6.07;0.70;;;;;;;;;;6211955;23;20091;-68
2023/01/02 05:47:58;;;;;;;10.50;0.77;;;;;;;;;;6210586;23;20051;-68
2023/01/02 05:50:26;;;;;;;8.90;0.70;;;;;;;;;;6197100;23;20016;-69
2023/01/02 05:52:55;;;;;;;7.25;0.55;;;;;;;;;;6205310;23;20024;-68
2023/01/02 05:55:23;;;;;;;4.50;0.63;;;;;;;;;;6198054;23;20024;-69
2023/01/02 05:57:54;;;;;;;6.70;0.50;;;;;;;;;;6206245;23;20012;-68
2023/01/02 06:00:23;;;;;;;6.70;0.75;;;;;;;;;;6183868;23;20339;-68
2023/01/02 06:02:50;;;;;;;6.85;0.65;;;;;;;;;;6203745;23;20281;-68
2023/01/02 06:05:18;;;;;;;6.43;0.88;;;;;;;;;;6189855;23;20510;-68
2023/01/02 06:07:46;;;;;;;6.20;0.52;;;;;;;;;;6200964;23;20430;-68
2023/01/02 06:10:14;;;;;;;4.33;0.47;;;;;;;;;;6203236;23;20024;-69
2023/01/02 06:12:41;;;;;;;8.02;0.80;;;;;;;;;;6202638;23;20015;-68
2023/01/02 06:15:09;;;;;;;7.43;1.02;;;;;;;;;;6200287;23;20505;-69
2023/01/02 06:17:38;;;;;;;10.35;1.35;;;;;;;;;;6197889;23;20279;-68
2023/01/02 06:20:06;;;;;;;7.85;0.88;;;;;;;;;;6199047;23;20016;-69
2023/01/02 06:22:34;;;;;;;6.80;0.70;;;;;;;;;;6195535;23;20027;-69
2023/01/02 06:25:02;;;;;;;6.65;1.00;;;;;;;;;;6199262;23;20115;-69
2023/01/02 06:27:31;;;;;;;7.70;1.00;;;;;;;;;;6197195;23;20653;-69
2023/01/02 06:29:58;;;;;;;6.38;0.70;;;;;;;;;;6181648;23;20498;-68
2023/01/02 06:32:26;;;;;;;12.10;1.50;;;;;;;;;;6198599;23;20135;-69
2023/01/02 06:34:55;;;;;;;4.33;0.80;;;;;;;;;;6200761;23;20055;-68
2023/01/02 06:37:23;;;;;;;7.65;1.13;;;;;;;;;;6197335;23;20024;-68
2023/01/02 06:39:53;;;;;;;8.82;1.05;;;;;;;;;;6201618;23;20044;-68
2023/01/02 06:42:21;;;;;;;8.48;0.90;;;;;;;;;;6208188;23;20039;-68
2023/01/02 06:44:49;;;;;;;8.35;0.70;;;;;;;;;;6192000;23;20105;-67
2023/01/02 06:47:17;;;;;;;5.00;0.80;;;;;;;;;;6199793;23;20012;-67
2023/01/02 06:49:44;;;;;;;5.60;0.88;;;;;;;;;;6192460;23;20050;-68
2023/01/02 06:52:13;;;;;;;5.97;0.80;;;;;;;;;;6197329;23;20039;-68
2023/01/02 06:54:41;;;;;;;7.20;1.30;;;;;;;;;;6202947;23;20629;-68
2023/01/02 06:57:08;;;;;;;6.72;1.13;;;;;;;;;;6191208;23;20445;-68
2023/01/02 06:59:36;;;;;;;8.57;1.13;;;;;;;;;;6203907;23;20047;-67
2023/01/02 07:02:03;;;;;;;7.00;1.00;;;;;;;;;;6196707;23;20016;-68
2023/01/02 07:04:31;;;;;;;10.98;1.20;;;;;;;;;;6203509;23;20017;-67
2023/01/02 07:07:00;;;;;;;9.20;1.05;;;;;;;;;;6194535;23;20082;-67
2023/01/02 07:09:29;;;;;;;8.63;0.90;;;;;;;;;;6205221;23;20526;-67
2023/01/02 07:11:58;;;;;;;5.27;1.07;;;;;;;;;;6200587;23;20514;-67
2023/01/02 07:14:30;;;;;;;7.30;0.90;;;;;;;;;;6204617;23;20020;-67
2023/01/02 07:16:58;;;;;;;7.63;0.80;;;;;;;;;;6206649;23;20044;-66
2023/01/02 07:19:27;;;;;;;7.97;1.30;;;;;;;;;;6197431;23;20016;-68
2023/01/02 07:21:54;;;;;;;10.38;1.48;;;;;;;;;;6175954;23;20108;-67
2023/01/02 07:24:22;;;;;;;9.27;1.57;;;;;;;;;;6203331;23;20640;-67
2023/01/02 07:26:51;;;;;;;6.65;1.20;;;;;;;;;;6206683;23;20062;-67
2023/01/02 07:29:18;;;;;;;12.88;1.25;;;;;;;;;;6173956;23;20020;-67
2023/01/02 07:31:47;;;;;;;7.05;1.73;;;;;;;;;;6200664;23;20103;-68
2023/01/02 07:34:15;;;;;;;12.40;1.75;;;;;;;;;;6209100;23;20024;-67
2023/01/02 07:36:42;;;;;;;9.00;2.20;;;;;;;;;;6199892;23;20506;-67
2023/01/02 07:39:10;;;;;;;14.27;2.10;;;;;;;;;;6199755;23;20095;-67
2023/01/02 07:41:37;;;;;;;14.63;2.50;;;;;;;;;;6204286;23;20044;-67
2023/01/02 07:44:06;;;;;;;16.33;3.15;;;;;;;;;;6198110;23;20092;-67
2023/01/02 07:46:34;;;;;;;12.35;2.83;;;;;;;;;;6203481;23;20044;-68
2023/01/02 07:49:02;;;;;;;15.83;3.90;;;;;;;;;;6208919;23;20099;-67
2023/01/02 07:51:30;;;;;;;20.60;3.75;;;;;;;;;;6208851;23;20058;-67
2023/01/02 07:53:58;;;;;;;12.52;3.22;;;;;;;;;;6193469;23;20674;-67
2023/01/02 07:56:26;;;;;;;16.85;3.60;;;;;;;;;;6209382;23;20517;-67
2023/01/02 07:58:54;;;;;;;17.23;4.07;;;;;;;;;;6193741;23;20718;-67
2023/01/02 08:01:23;;;;;;;18.33;4.73;;;;;;;;;;6205389;23;20544;-68
2023/01/02 08:03:51;;;;;;;16.58;4.50;;;;;;;;;;6201178;23;20103;-67
2023/01/02 08:06:19;;;;;;;21.83;4.82;;;;;;;;;;6198018;23;20103;-67
2023/01/02 08:08:47;;;;;;;20.45;5.13;;;;;;;;;;6203414;23;20062;-67
2023/01/02 08:11:17;;;;;;;23.40;4.68;;;;;;;;;;6205517;23;20074;-68
2023/01/02 08:13:45;;;;;;;21.67;5.37;;;;;;;;;;6206941;23;20466;-67
2023/01/02 08:16:14;;;;;;;22.48;5.38;;;;;;;;;;6174961;23;20016;-67
2023/01/02 08:18:43;;;;;;;18.30;4.38;;;;;;;;;;6210971;23;20062;-67
2023/01/02 08:21:11;;;;;;;14.55;4.03;;;;;;;;;;6201780;23;20012;-67
2023/01/02 08:23:39;;;;;;;20.00;3.80;;;;;;;;;;6211501;23;20051;-69
2023/01/02 08:26:10;;;;;;;16.27;3.63;;;;;;;;;;6205153;23;20382;-67
2023/01/02 08:28:38;;;;;;;14.13;3.25;;;;;;;;;;6194696;23;20022;-67
2023/01/02 08:31:07;;;;;;;16.52;3.75;;;;;;;;;;6208155;23;20071;-67
2023/01/02 08:33:35;;;;;;;14.15;3.15;;;;;;;;;;6202649;23;20690;-66
2023/01/02 08:36:04;;;;;;;13.55;3.35;;;;;;;;;;6207427;23;20020;-68
2023/01/02 08:38:32;;;;;;;15.57;3.17;;;;;;;;;;6204259;23;20595;-67
2023/01/02 08:40:59;;;;;;;11.15;2.75;;;;;;;;;;6209948;23;20016;-67
2023/01/02 08:43:27;;;;;;;11.55;2.63;;;;;;;;;;6199400;23;20016;-68
2023/01/02 08:45:55;;;;;;;13.45;2.95;;;;;;;;;;6206472;23;20036;-67
2023/01/02 08:48:23;;;;;;;12.95;3.33;;;;;;;;;;6211630;23;20020;-68
2023/01/02 08:50:51;;;;;;;11.33;2.83;;;;;;;;;;6182227;23;20367;-68
2023/01/02 08:53:20;;;;;;;12.70;3.45;;;;;;;;;;6211275;23;20055;-67
2023/01/02 08:56:11;;;;;;;10.68;2.78;;;;;;;;;;6203577;23;20430;-68
2023/01/02 08:58:39;;;;;;;9.18;2.92;;;;;;;;;;6210687;23;20447;-66
2023/01/02 09:01:06;;;;;;;10.45;3.20;;;;;;;;;;6211437;23;20091;-67
2023/01/02 09:03:36;;;;;;;10.43;3.17;;;;;;;;;;6220743;23;20069;-68
2023/01/02 09:06:08;;;;;;;9.07;2.75;;;;;;;;;;6222537;23;20062;-68
2023/01/02 09:08:37;;;;;;;9.70;2.95;;;;;;;;;;6209545;23;20012;-68
2023/01/02 09:11:10;;;;;;;9.45;2.97;;;;;;;;;;6220651;23;20047;-67
2023/01/02 09:13:37;;;;;;;9.10;2.63;;;;;;;;;;6216337;23;20012;-67
2023/01/02 09:16:05;;;;;;;10.00;2.70;;;;;;;;;;6217833;23;20047;-67
2023/01/02 09:18:33;;;;;;;9.88;2.63;;;;;;;;;;6213825;23;20027;-67
2023/01/02 09:21:01;;;;;;;8.70;2.65;;;;;;;;;;6208688;23;20455;-68
2023/01/02 09:23:30;;;;;;;9.70;2.55;;;;;;;;;;6214542;23;20318;-67
2023/01/02 09:25:59;;;;;;;8.25;2.35;;;;;;;;;;6183573;23;20052;-67
2023/01/02 09:28:27;;;;;;;8.70;2.70;;;;;;;;;;6205297;23;20459;-68
2023/01/02 09:30:55;;;;;;;8.10;2.10;;;;;;;;;;6205373;23;20518;-67
2023/01/02 09:33:23;;;;;;;7.07;1.83;;;;;;;;;;6216629;23;20120;-67
2023/01/02 09:35:51;;;;;;;8.15;2.08;;;;;;;;;;6205870;23;20016;-66
2023/01/02 09:38:18;;;;;;;9.27;2.13;;;;;;;;;;6216098;23;20043;-67
2023/01/02 09:40:47;;;;;;;6.77;1.90;;;;;;;;;;6210928;23;20370;-67
2023/01/02 09:43:18;;;;;;;9.65;2.45;;;;;;;;;;6210352;23;20060;-68
2023/01/02 09:45:46;;;;;;;11.50;2.90;;;;;;;;;;6203371;23;20439;-67
2023/01/02 09:48:16;;;;;;;9.75;3.25;;;;;;;;;;6182684;23;20028;-67
2023/01/02 09:50:45;;;;;;;9.60;2.85;;;;;;;;;;6194619;23;20410;-66
2023/01/02 09:53:13;;;;;;;10.03;3.03;;;;;;;;;;6214038;23;20016;-67
2023/01/02 09:55:43;;;;;;;10.32;3.85;;;;;;;;;;6206271;23;20077;-66
2023/01/02 09:58:16;;;;;;;11.52;3.22;;;;;;;;;;6210756;23;20016;-68
2023/01/02 10:00:45;;;;;;;9.15;2.65;;;;;;;;;;6201026;23;20091;-66
2023/01/02 10:03:18;;;;;;;10.27;3.25;;;;;;;;;;6218059;23;20075;-68
2023/01/02 10:05:58;;;;;;;8.40;2.47;;;;;;;;;;6206358;23;20420;-67
2023/01/02 10:08:30;;;;;;;11.38;2.45;;;;;;;;;;6209060;23;20325;-67
2023/01/02 10:11:05;;;;;;;8.73;2.85;;;;;;;;;;6195706;23;20020;-68
2023/01/02 10:13:35;;;;;;;11.13;2.97;;;;;;;;;;6205141;23;20016;-67
2023/01/02 10:16:26;;;;;;;8.07;2.60;;;;;;;;;;6203680;23;20118;-67
2023/01/02 10:18:55;;;;;;;9.87;2.80;;;;;;;;;;6205991;23;20047;-67
2023/01/02 10:21:24;;;;;;;11.38;3.22;;;;;;;;;;6216585;23;20043;-67
2023/01/02 10:23:55;;;;;;;13.77;3.75;;;;;;;;;;6211177;23;20095;-67
2023/01/02 10:26:25;;;;;;;11.50;2.92;;;;;;;;;;6212887;23;20036;-66
2023/01/02 10:28:56;;;;;;;11.30;3.05;;;;;;;;;;6203431;23;20522;-67
2023/01/02 10:31:28;;;;;;;8.90;2.67;;;;;;;;;;6215990;23;20055;-67
2023/01/02 10:33:57;;;;;;;11.63;3.17;;;;;;;;;;6201379;23;20047;-67
2023/01/02 10:36:27;;;;;;;12.35;2.80;;;;;;;;;;6184745;23;20482;-67
2023/01/02 10:38:57;;;;;;;9.77;2.97;;;;;;;;;;6214953;23;20058;-67
2023/01/02 10:41:28;;;;;;;11.35;2.63;;;;;;;;;;6214162;23;20096;-66
2023/01/02 10:43:58;;;;;;;9.17;2.30;;;;;;;;;;6208233;23;20485;-67
2023/01/02 10:46:32;;;;;;;12.32;2.63;;;;;;;;;;6211051;23;20051;-67
2023/01/02 10:49:00;;;;;;;9.88;2.42;;;;;;;;;;6210476;23;20054;-67
2023/01/02 10:51:28;;;;;;;6.95;1.90;;;;;;;;;;6210106;23;20044;-67
2023/01/02 10:54:00;;;;;;;12.05;2.47;;;;;;;;;;6208066;23;20787;-67
2023/01/02 10:56:30;;;;;;;7.23;2.03;;;;;;;;;;6215353;23;20020;-67
2023/01/02 10:58:58;;;;;;;10.13;2.58;;;;;;;;;;6208932;23;20040;-67
2023/01/02 11:01:27;;;;;;;9.52;2.20;;;;;;;;;;6218097;23;20027;-66
2023/01/02 11:04:15;;;;;;;10.57;2.38;;;;;;;;;;6201184;23;20053;-67
2023/01/02 11:06:50;;;;;;;7.05;1.95;;;;;;;;;;6209407;23;20059;-68
2023/01/02 11:09:19;;;;;;;10.47;2.57;;;;;;;;;;6213238;23;20039;-69
2023/01/02 11:11:51;;;;;;;7.97;2.22;;;;;;;;;;6213349;23;20024;-69
2023/01/02 11:14:21;;;;;;;6.07;1.60;;;;;;;;;;6211415;23;20471;-68
2023/01/02 11:16:49;;;;;;;8.10;1.73;;;;;;;;;;6212068;23;20493;-67
2023/01/02 11:19:22;;;;;;;6.32;1.08;;;;;;;;;;6200532;23;20579;-68
2023/01/02 11:21:56;;;;;;;6.03;1.13;;;;;;;;;;6216131;23;20533;-68
2023/01/02 11:24:27;;;;;;;6.00;1.63;;;;;;;;;;6206178;23;20124;-67
2023/01/02 11:26:58;;;;;;;7.55;1.75;;;;;;;;;;6211749;23;20043;-68
2023/01/02 11:29:27;;;;;;;5.13;1.00;;;;;;;;;;6188784;23;20016;-67
2023/01/02 11:31:56;;;;;;;7.97;1.50;;;;;;;;;;6209157;23;20677;-66
2023/01/02 11:34:30;;;;;;;6.20;1.13;;;;;;;;;;6215143;23;20387;-66
2023/01/02 11:37:02;;;;;;;7.35;1.40;;;;;;;;;;6200586;23;20020;-66
2023/01/02 11:39:32;;;;;;;6.03;1.30;;;;;;;;;;6207783;23;20039;-64
2023/01/02 11:44:54;;;;;;;5.70;1.45;;;;;;;;;;6153032;23;20020;-65
2023/01/02 11:47:27;;;;;;;5.10;1.23;;;;;;;;;;6216878;23;20016;-64
2023/01/02 11:49:57;;;;;;;4.55;0.90;;;;;;;;;;6203857;23;20016;-65
2023/01/02 11:52:29;;;;;;;6.63;1.10;;;;;;;;;;6172773;23;20530;-64
2023/01/02 11:55:00;;;;;;;5.32;1.00;;;;;;;;;;6186282;23;20017;-64
2023/01/02 11:57:29;;;;;;;7.07;1.02;;;;;;;;;;6151351;23;20017;-67
2023/01/02 11:59:58;;;;;;;9.93;1.30;;;;;;;;;;6184906;23;20019;-66
2023/01/02 12:02:29;;;;;;;4.72;0.85;;;;;;;;;;6182846;23;20020;-66
2023/01/02 12:04:58;;;;;;;3.97;1.00;;;;;;;;;;6182054;23;20020;-66
2023/01/02 12:07:31;;;;;;;4.15;1.00;;;;;;;;;;6147667;23;20024;-69
2023/01/02 12:10:02;;;;;;;3.75;0.73;;;;;;;;;;6185276;23;20502;-69
2023/01/02 12:12:41;;;;;;;6.40;1.00;;;;;;;;;;6190044;23;20012;-70
2023/01/02 12:15:18;;;;;;;4.93;0.90;;;;;;;;;;6177255;23;20059;-67
2023/01/02 12:17:50;;;;;;;5.03;1.20;;;;;;;;;;6176371;23;20104;-70
2023/01/02 12:20:24;;;;;;;3.67;0.60;;;;;;;;;;6186523;23;20017;-70
2023/01/02 12:23:10;;;;;;;3.80;0.60;;;;;;;;;;6187290;23;20427;-69
2023/01/02 12:25:43;;;;;;;6.60;0.97;;;;;;;;;;6178000;23;20216;-68
2023/01/02 12:28:17;;;;;;;4.18;0.90;;;;;;;;;;6186857;23;20013;-69
2023/01/02 12:30:48;;;;;;;4.00;1.13;;;;;;;;;;6138243;23;20071;-69
2023/01/02 12:33:32;;;;;;;4.55;0.57;;;;;;;;;;6188942;23;20024;-69
2023/01/02 12:36:08;;;;;;;4.35;0.82;;;;;;;;;;6188597;23;20112;-69
2023/01/02 12:38:43;;;;;;;4.13;0.90;;;;;;;;;;6175879;23;20036;-68
2023/01/02 12:41:17;;;;;;;5.35;0.80;;;;;;;;;;6193237;23;20051;-68
2023/01/02 12:43:57;;;;;;;7.13;0.93;;;;;;;;;;6176567;23;20096;-67
2023/01/02 12:46:39;;;;;;;4.97;0.80;;;;;;;;;;6177491;23;20021;-67
2023/01/02 12:49:14;;;;;;;5.68;1.30;;;;;;;;;;6190955;23;20012;-67
2023/01/02 12:51:47;;;;;;;4.57;1.00;;;;;;;;;;6165401;23;20019;-67
2023/01/02 12:54:23;;;;;;;4.07;0.90;;;;;;;;;;6205996;23;20077;-67
2023/01/02 12:56:58;;;;;;;5.15;0.80;;;;;;;;;;6185543;23;20027;-67
2023/01/02 12:59:38;;;;;;;3.45;0.55;;;;;;;;;;6222554;23;20055;-67
2023/01/02 13:02:11;;;;;;;3.58;0.40;;;;;;;;;;6213850;23;20040;-68
2023/01/02 13:04:41;;;;;;;3.20;0.40;;;;;;;;;;6197015;23;20332;-70
2023/01/02 13:07:16;;;;;;;2.95;0.30;;;;;;;;;;6207710;23;20039;-68
2023/01/02 13:09:45;;;;;;;3.22;0.20;;;;;;;;;;6215458;23;20478;-69
2023/01/02 13:12:14;;;;;;;3.60;0.22;;;;;;;;;;6224572;23;20020;-68
2023/01/02 13:14:43;;;;;;;3.08;0.50;;;;;;;;;;6203690;23;20019;-69
2023/01/02 13:17:29;;;;;;;2.63;0.33;;;;;;;;;;6227105;23;20020;-70
2023/01/02 13:20:00;;;;;;;2.25;0.30;;;;;;;;;;6216428;23;20091;-70
2023/01/02 13:22:35;;;;;;;2.70;0.30;;;;;;;;;;6211551;23;20535;-70
2023/01/02 13:25:03;;;;;;;2.97;0.32;;;;;;;;;;6215734;23;20016;-70
2023/01/02 13:27:31;;;;;;;2.85;0.20;;;;;;;;;;6201930;23;20580;-70
2023/01/02 13:30:01;;;;;;;5.03;0.30;;;;;;;;;;6208351;23;20047;-70
2023/01/02 13:32:30;;;;;;;2.92;0.40;;;;;;;;;;6208618;23;20043;-70
2023/01/02 13:34:58;;;;;;;2.53;0.30;;;;;;;;;;6217026;23;20499;-70
2023/01/02 13:37:27;;;;;;;2.97;0.85;;;;;;;;;;6203682;23;20362;-70
2023/01/02 13:39:58;;;;;;;2.05;0.30;;;;;;;;;;6211971;23;20070;-69
2023/01/02 13:45:15;;;;;;;2.50;0.30;;;;;;;;;;6205898;23;20279;-70
2023/01/02 13:47:47;;;;;;;2.03;0.20;;;;;;;;;;6210770;23;20070;-69
2023/01/02 13:50:18;;;;;;;3.00;0.35;;;;;;;;;;6206703;23;20016;-68
2023/01/02 13:52:55;;;;;;;3.75;0.38;;;;;;;;;;6207224;23;20444;-69
2023/01/02 13:55:32;;;;;;;1.80;0.20;;;;;;;;;;6209740;23;20012;-69
2023/01/02 13:58:19;;;;;;;1.88;0.30;;;;;;;;;;6219068;23;20050;-69
2023/01/02 14:00:47;;;;;;;1.50;0.10;;;;;;;;;;6207894;23;20672;-69
2023/01/02 14:03:39;;;;;;;2.17;0.40;;;;;;;;;;6212202;23;20020;-70
2023/01/02 14:06:21;;;;;;;5.68;0.40;;;;;;;;;;6191285;23;20028;-69
2023/01/02 14:09:04;;;;;;;2.03;0.30;;;;;;;;;;6186417;23;20066;-68
2023/01/02 14:11:37;;;;;;;2.17;0.20;;;;;;;;;;6216221;23;20012;-69
2023/01/02 14:14:24;;;;;;;3.97;0.45;;;;;;;;;;6217763;23;20020;-69
2023/01/02 14:17:01;;;;;;;3.58;0.60;;;;;;;;;;6215490;23;20391;-69
2023/01/02 14:19:28;;;;;;;5.30;1.10;;;;;;;;;;6189261;23;20056;-69
2023/01/02 14:22:06;;;;;;;4.93;0.50;;;;;;;;;;6223939;23;20107;-69
2023/01/02 14:24:38;;;;;;;2.67;0.43;;;;;;;;;;6192163;23;20012;-68
2023/01/02 14:27:17;;;;;;;3.15;0.40;;;;;;;;;;6205995;23;20042;-70
2023/01/02 14:29:46;;;;;;;3.63;0.45;;;;;;;;;;6220124;23;20435;-69
2023/01/02 14:32:22;;;;;;;4.13;0.38;;;;;;;;;;6211414;23;20036;-69
2023/01/02 14:34:54;;;;;;;3.73;0.47;;;;;;;;;;6195080;23;20070;-68
2023/01/02 14:37:29;;;;;;;3.03;0.40;;;;;;;;;;6210824;23;20024;-69
2023/01/02 14:40:09;;;;;;;5.22;0.40;;;;;;;;;;6201663;23;20024;-69
2023/01/02 14:45:27;;;;;;;2.38;0.40;;;;;;;;;;6193708;23;20024;-69
2023/01/02 14:47:58;;;;;;;3.83;0.40;;;;;;;;;;6200508;23;20063;-69
2023/01/02 14:50:29;;;;;;;6.15;0.30;;;;;;;;;;6160209;23;20035;-70
2023/01/02 14:53:00;;;;;;;2.53;0.22;;;;;;;;;;6217245;23;20525;-69
2023/01/02 14:55:30;;;;;;;3.15;0.47;;;;;;;;;;6220727;23;20091;-69
2023/01/02 14:58:12;;;;;;;4.18;0.40;;;;;;;;;;6203114;23;20027;-69
2023/01/02 15:00:42;;;;;;;2.93;0.30;;;;;;;;;;6214361;23;20013;-68
2023/01/02 15:03:17;;;;;;;3.33;0.30;;;;;;;;;;6216156;23;20758;-66
2023/01/02 15:05:48;;;;;;;4.03;0.68;;;;;;;;;;6210840;23;20043;-67
2023/01/02 15:08:18;;;;;;;3.25;0.47;;;;;;;;;;6214819;23;20046;-68
2023/01/02 15:10:55;;;;;;;4.35;0.47;;;;;;;;;;6171868;23;20019;-68
2023/01/02 15:13:26;;;;;;;3.40;0.40;;;;;;;;;;6201257;23;20417;-67